METAR Data
IDs: Format: Raw Decoded Include TAF

Data at: 1900 UTC 25 Oct 2021

LIRA 251850Z 22002KT CAVOK 17/10 Q1019